createdAt,value
2023-04-16T00:00:10.307Z,100129.11
2023-04-16T00:02:42.975Z,100128.48
2023-04-16T00:04:55.596Z,100127.92
2023-04-16T00:07:08.389Z,100127.95
2023-04-16T00:09:20.994Z,100127.52
2023-04-16T00:11:33.517Z,100128.85
2023-04-16T00:13:46.065Z,100130.06
2023-04-16T00:15:59.140Z,100137.30
2023-04-16T00:18:11.685Z,100139.33
2023-04-16T00:20:24.241Z,100138.96
2023-04-16T00:22:36.971Z,100138.44
2023-04-16T00:24:49.542Z,100134.86
2023-04-16T00:27:02.071Z,100133.46
2023-04-16T00:29:14.665Z,100133.21
2023-04-16T00:31:31.878Z,100134.55
2023-04-16T00:33:44.442Z,100136.21
2023-04-16T00:35:57.169Z,100133.68
2023-04-16T00:38:09.755Z,100139.80
2023-04-16T00:40:22.281Z,100138.92
2023-04-16T00:42:36.981Z,100140.02
2023-04-16T00:44:49.583Z,100147.25
2023-04-16T00:47:03.039Z,100146.34
2023-04-16T00:49:15.603Z,100149.04
2023-04-16T00:51:28.450Z,100150.30
2023-04-16T00:53:41.656Z,100146.91
2023-04-16T00:55:56.103Z,100149.82
2023-04-16T00:58:08.673Z,100140.84
2023-04-16T01:00:21.640Z,100144.09
2023-04-16T01:02:34.702Z,100137.70
2023-04-16T01:04:47.523Z,100140.48
2023-04-16T01:07:00.498Z,100138.05
2023-04-16T01:09:13.114Z,100137.17
2023-04-16T01:11:25.819Z,100140.73
2023-04-16T01:13:41.051Z,100143.11
2023-04-16T01:15:53.577Z,100146.20
2023-04-16T01:18:16.897Z,100149.60
2023-04-16T01:20:29.773Z,100153.84
2023-04-16T01:22:42.741Z,100156.23
2023-04-16T01:24:55.376Z,100161.11
2023-04-16T01:27:07.931Z,100163.89
2023-04-16T01:29:20.648Z,100161.21
2023-04-16T01:31:33.341Z,100161.20
2023-04-16T01:33:46.124Z,100157.34
2023-04-16T01:35:58.679Z,100161.27
2023-04-16T01:38:11.255Z,100163.98
2023-04-16T01:40:23.810Z,100159.64
2023-04-16T01:42:37.549Z,100162.85
2023-04-16T01:44:50.163Z,100162.04
2023-04-16T01:47:02.923Z,100159.68
2023-04-16T01:49:15.847Z,100159.58
2023-04-16T01:51:28.431Z,100161.35
2023-04-16T01:53:40.936Z,100164.90
2023-04-16T01:55:53.575Z,100166.56
2023-04-16T01:58:07.907Z,100165.65
2023-04-16T02:00:20.538Z,100168.57
2023-04-16T02:02:33.192Z,100170.95
2023-04-16T02:04:46.330Z,100168.45
2023-04-16T02:06:58.889Z,100170.09
2023-04-16T02:09:11.709Z,100172.39
2023-04-16T02:11:24.357Z,100172.13
2023-04-16T02:13:36.926Z,100171.59
2023-04-16T02:15:50.567Z,100175.86
2023-04-16T02:18:03.275Z,100176.13
2023-04-16T02:20:16.196Z,100176.54
2023-04-16T02:22:28.743Z,100177.36
2023-04-16T02:24:41.339Z,100183.38
2023-04-16T02:26:54.696Z,100184.41
2023-04-16T02:29:07.397Z,100185.30
2023-04-16T02:31:19.991Z,100190.15
2023-04-16T02:33:32.587Z,100194.55
2023-04-16T02:35:45.185Z,100193.30
2023-04-16T02:37:58.617Z,100193.95
2023-04-16T02:40:11.617Z,100191.56
2023-04-16T02:42:24.142Z,100191.90
2023-04-16T02:44:36.634Z,100198.09
2023-04-16T02:46:49.216Z,100197.13
2023-04-16T02:49:01.714Z,100195.61
2023-04-16T02:51:14.277Z,100194.77
2023-04-16T02:53:26.826Z,100198.03
2023-04-16T02:55:39.367Z,100194.76
2023-04-16T02:57:52.886Z,100195.81
2023-04-16T03:00:06.051Z,100199.42
2023-04-16T03:02:18.600Z,100201.49
2023-04-16T03:04:33.299Z,100200.74
2023-04-16T03:06:46.231Z,100200.48
2023-04-16T03:08:58.889Z,100202.73
2023-04-16T03:11:11.676Z,100209.98
2023-04-16T03:13:24.194Z,100208.08
2023-04-16T03:15:36.833Z,100211.11
2023-04-16T03:17:49.619Z,100212.71
2023-04-16T03:20:02.248Z,100217.59
2023-04-16T03:22:14.800Z,100221.93
2023-04-16T03:24:28.109Z,100230.38
2023-04-16T03:26:40.682Z,100232.91
2023-04-16T03:28:53.252Z,100235.95
2023-04-16T03:31:06.083Z,100239.85
2023-04-16T03:33:19.465Z,100238.56
2023-04-16T03:35:32.072Z,100239.27
2023-04-16T03:37:44.626Z,100242.29
2023-04-16T03:39:57.186Z,100240.67
2023-04-16T03:42:09.751Z,100244.08
2023-04-16T03:44:22.404Z,100250.02
2023-04-16T03:46:35.036Z,100247.96
2023-04-16T03:48:47.646Z,100250.01
2023-04-16T03:51:00.597Z,100251.19
2023-04-16T03:53:13.272Z,100251.79
2023-04-16T03:55:25.812Z,100253.52
2023-04-16T03:57:38.401Z,100256.27
2023-04-16T03:59:51.072Z,100257.48
2023-04-16T04:02:03.753Z,100261.08
2023-04-16T04:04:16.680Z,100264.08
2023-04-16T04:06:29.268Z,100266.75
2023-04-16T04:08:42.840Z,100266.13
2023-04-16T04:10:55.394Z,100269.19
2023-04-16T04:13:08.055Z,100273.98
2023-04-16T04:15:20.656Z,100274.63
2023-04-16T04:17:33.240Z,100279.57
2023-04-16T04:19:59.980Z,100282.76
2023-04-16T04:22:13.503Z,100281.34
2023-04-16T04:24:27.025Z,100284.56
2023-04-16T04:26:39.585Z,100287.14
2023-04-16T04:28:52.354Z,100289.02
2023-04-16T04:31:05.326Z,100293.75
2023-04-16T04:33:17.823Z,100296.61
2023-04-16T04:35:30.402Z,100292.81
2023-04-16T04:37:42.958Z,100299.71
2023-04-16T04:39:55.759Z,100301.34
2023-04-16T04:42:08.583Z,100304.17
2023-04-16T04:44:21.142Z,100302.98
2023-04-16T04:46:33.723Z,100302.14
2023-04-16T04:48:46.224Z,100301.41
2023-04-16T04:50:58.886Z,100306.38
2023-04-16T04:53:11.512Z,100307.36
2023-04-16T04:55:24.205Z,100307.34
2023-04-16T04:57:36.750Z,100309.92
2023-04-16T04:59:49.328Z,100310.79
2023-04-16T05:02:03.370Z,100309.56
2023-04-16T05:04:16.234Z,100312.18
2023-04-16T05:06:29.705Z,100309.73
2023-04-16T05:08:42.299Z,100314.11
2023-04-16T05:10:54.836Z,100315.71
2023-04-16T05:13:07.528Z,100316.84
2023-04-16T05:15:20.208Z,100321.29
2023-04-16T05:17:32.766Z,100325.15
2023-04-16T05:19:45.370Z,100328.63
2023-04-16T05:21:57.918Z,100332.45
2023-04-16T05:24:10.639Z,100337.47
2023-04-16T05:26:23.503Z,100335.71
2023-04-16T05:28:36.108Z,100338.03
2023-04-16T05:30:48.725Z,100338.23
2023-04-16T05:33:01.295Z,100340.42
2023-04-16T05:35:16.725Z,100341.63
2023-04-16T05:37:30.030Z,100341.98
2023-04-16T05:39:42.595Z,100349.83
2023-04-16T05:41:55.110Z,100351.31
2023-04-16T05:44:07.702Z,100352.51
2023-04-16T05:46:20.532Z,100359.62
2023-04-16T05:48:33.161Z,100359.23
2023-04-16T05:50:45.725Z,100365.13
2023-04-16T05:52:58.213Z,100367.52
2023-04-16T05:55:10.858Z,100369.05
2023-04-16T05:57:23.368Z,100367.25
2023-04-16T05:59:35.950Z,100370.45
2023-04-16T06:01:48.589Z,100371.69
2023-04-16T06:04:01.386Z,100371.48
2023-04-16T06:06:14.073Z,100378.91
2023-04-16T06:08:26.614Z,100382.25
2023-04-16T06:10:39.252Z,100382.84
2023-04-16T06:12:51.752Z,100385.39
2023-04-16T06:15:05.442Z,100386.11
2023-04-16T06:17:19.286Z,100386.23
2023-04-16T06:19:31.781Z,100394.48
2023-04-16T06:21:44.367Z,100395.34
2023-04-16T06:23:56.934Z,100397.83
2023-04-16T06:26:11.355Z,100398.63
2023-04-16T06:28:23.897Z,100404.98
2023-04-16T06:30:36.518Z,100405.34
2023-04-16T06:32:49.325Z,100407.52
2023-04-16T06:35:01.921Z,100409.19
2023-04-16T06:37:14.488Z,100409.73
2023-04-16T06:39:27.502Z,100408.26
2023-04-16T06:41:40.274Z,100403.71
2023-04-16T06:43:52.792Z,100402.59
2023-04-16T06:46:05.372Z,100404.38
2023-04-16T06:48:17.886Z,100408.69
2023-04-16T06:50:30.512Z,100409.92
2023-04-16T06:52:43.107Z,100404.61
2023-04-16T06:54:56.358Z,100409.40
2023-04-16T06:57:08.894Z,100411.71
2023-04-16T06:59:21.416Z,100411.73
2023-04-16T07:01:34.254Z,100415.89
2023-04-16T07:03:47.303Z,100413.61
2023-04-16T07:06:00.219Z,100414.48
2023-04-16T07:08:12.788Z,100416.91
2023-04-16T07:10:25.563Z,100421.48
2023-04-16T07:12:38.888Z,100426.29
2023-04-16T07:14:51.561Z,100432.13
2023-04-16T07:17:04.129Z,100433.03
2023-04-16T07:19:16.717Z,100435.44
2023-04-16T07:21:29.415Z,100438.40
2023-04-16T07:23:42.023Z,100436.63
2023-04-16T07:25:57.125Z,100441.23
2023-04-16T07:28:09.742Z,100443.16
2023-04-16T07:30:22.261Z,100439.96
2023-04-16T07:32:35.497Z,100446.01
2023-04-16T07:34:48.039Z,100448.73
2023-04-16T07:37:00.779Z,100452.61
2023-04-16T07:39:13.319Z,100454.48
2023-04-16T07:41:26.173Z,100447.70
2023-04-16T07:43:38.705Z,100449.91
2023-04-16T07:45:51.571Z,100451.98
2023-04-16T07:48:05.230Z,100454.11
2023-04-16T07:50:19.423Z,100457.23
2023-04-16T07:52:32.272Z,100463.41
2023-04-16T07:54:44.821Z,100467.82
2023-04-16T07:56:57.443Z,100465.32
2023-04-16T07:59:21.786Z,100465.30
2023-04-16T08:01:35.915Z,100466.93
2023-04-16T08:03:48.578Z,100461.61
2023-04-16T08:06:01.353Z,100466.42
2023-04-16T08:08:13.908Z,100464.80
2023-04-16T08:10:27.454Z,100468.94
2023-04-16T08:12:40.687Z,100471.48
2023-04-16T08:14:53.216Z,100475.64
2023-04-16T08:17:05.970Z,100473.18
2023-04-16T08:19:18.724Z,100474.59
2023-04-16T08:21:31.590Z,100476.90
2023-04-16T08:23:44.112Z,100475.10
2023-04-16T08:25:56.767Z,100476.20
2023-04-16T08:28:09.582Z,100480.75
2023-04-16T08:30:22.997Z,100480.55
2023-04-16T08:32:35.707Z,100482.92
2023-04-16T08:34:48.338Z,100481.13
2023-04-16T08:37:01.100Z,100483.00
2023-04-16T08:39:13.698Z,100484.79
2023-04-16T08:41:29.993Z,100484.13
2023-04-16T08:43:45.348Z,100485.73
2023-04-16T08:45:59.139Z,100487.24
2023-04-16T08:48:12.030Z,100488.43
2023-04-16T08:50:26.601Z,100487.98
2023-04-16T08:52:45.932Z,100488.08
2023-04-16T08:55:05.344Z,100484.89
2023-04-16T08:57:19.783Z,100485.97
2023-04-16T08:59:33.069Z,100484.13
2023-04-16T09:01:46.778Z,100490.50
2023-04-16T09:04:02.842Z,100495.27
2023-04-16T09:06:16.644Z,100495.40
2023-04-16T09:08:29.676Z,100496.84
2023-04-16T09:10:43.226Z,100501.37
2023-04-16T09:12:57.316Z,100501.45
2023-04-16T09:15:11.460Z,100505.82
2023-04-16T09:17:24.097Z,100508.48
2023-04-16T09:19:36.764Z,100508.64
2023-04-16T09:21:49.826Z,100510.85
2023-04-16T09:24:03.446Z,100513.80
2023-04-16T09:26:16.229Z,100511.59
2023-04-16T09:28:46.429Z,100512.54
2023-04-16T09:31:13.748Z,100513.58
2023-04-16T09:33:26.334Z,100511.50
2023-04-16T09:35:49.648Z,100517.21
2023-04-16T09:38:02.225Z,100517.80
2023-04-16T09:40:24.762Z,100508.06
2023-04-16T09:42:37.471Z,100509.48
2023-04-16T09:44:50.599Z,100506.80
2023-04-16T09:47:07.959Z,100506.98
2023-04-16T09:49:20.468Z,100504.90
2023-04-16T09:51:37.394Z,100507.23
2023-04-16T09:53:53.103Z,100505.38
2023-04-16T09:56:06.689Z,100510.38
2023-04-16T09:58:20.085Z,100510.06
2023-04-16T10:00:32.702Z,100511.13
2023-04-16T10:02:45.560Z,100514.11
2023-04-16T10:05:01.287Z,100510.20
2023-04-16T10:07:14.170Z,100511.66
2023-04-16T10:09:26.675Z,100511.56
2023-04-16T10:11:39.484Z,100513.99
2023-04-16T10:13:52.153Z,100514.39
2023-04-16T10:16:05.192Z,100514.27
2023-04-16T10:18:18.220Z,100511.47
2023-04-16T10:20:31.134Z,100508.77
2023-04-16T10:22:43.939Z,100505.41
2023-04-16T10:24:57.336Z,100500.14
2023-04-16T10:27:09.893Z,100499.59
2023-04-16T10:29:23.529Z,100500.05
2023-04-16T10:31:37.694Z,100505.69
2023-04-16T10:33:50.436Z,100506.47
2023-04-16T10:36:17.313Z,100498.55
2023-04-16T10:38:29.904Z,100490.98
2023-04-16T10:40:44.907Z,100494.40
2023-04-16T10:42:58.586Z,100499.38
2023-04-16T10:45:11.288Z,100499.64
2023-04-16T10:47:24.930Z,100497.48
2023-04-16T10:49:37.511Z,100495.98
2023-04-16T10:51:54.970Z,100491.37
2023-04-16T10:54:12.530Z,100492.44
2023-04-16T10:56:27.015Z,100493.48
2023-04-16T10:58:39.678Z,100495.40
2023-04-16T11:00:52.318Z,100497.45
2023-04-16T11:03:04.992Z,100495.97
2023-04-16T11:05:22.766Z,100495.20
2023-04-16T11:07:35.848Z,100502.23
2023-04-16T11:09:59.325Z,100506.28
2023-04-16T11:12:34.163Z,100508.16
2023-04-16T11:15:00.486Z,100507.23
2023-04-16T11:17:13.258Z,100513.19
2023-04-16T11:19:25.870Z,100507.73
2023-04-16T11:21:38.469Z,100504.86
2023-04-16T11:23:53.328Z,100505.48
2023-04-16T11:26:06.044Z,100505.32
2023-04-16T11:28:18.697Z,100504.27
2023-04-16T11:30:35.843Z,100503.78
2023-04-16T11:32:48.454Z,100507.06
2023-04-16T11:35:15.132Z,100504.14
2023-04-16T11:37:35.372Z,100503.64
2023-04-16T11:39:52.621Z,100500.04
2023-04-16T11:42:05.423Z,100500.50
2023-04-16T11:44:23.397Z,100500.34
2023-04-16T11:46:40.610Z,100500.06
2023-04-16T11:48:55.390Z,100499.94
2023-04-16T11:51:08.497Z,100497.73
2023-04-16T11:53:21.222Z,100497.02
2023-04-16T11:55:44.534Z,100498.82
2023-04-16T11:57:57.117Z,100500.48
2023-04-16T12:00:15.966Z,100505.08
2023-04-16T12:02:45.563Z,100506.80
2023-04-16T12:04:58.495Z,100502.23
2023-04-16T12:07:14.668Z,100499.55
2023-04-16T12:09:27.509Z,100501.70
2023-04-16T12:11:41.453Z,100505.70
2023-04-16T12:14:14.296Z,100503.33
2023-04-16T12:16:27.241Z,100502.02
2023-04-16T12:18:59.163Z,100503.45
2023-04-16T12:21:11.932Z,100508.31
2023-04-16T12:23:25.534Z,100509.38
2023-04-16T12:25:38.268Z,100507.85
2023-04-16T12:27:53.720Z,100506.50
2023-04-16T12:30:08.024Z,100509.81
2023-04-16T12:32:22.997Z,100511.81
2023-04-16T12:34:50.364Z,100508.64
2023-04-16T12:37:06.577Z,100502.80
2023-04-16T12:39:19.144Z,100502.07
2023-04-16T12:41:31.751Z,100502.91
2023-04-16T12:43:44.296Z,100504.38
2023-04-16T12:45:57.147Z,100503.99
2023-04-16T12:48:10.171Z,100508.14
2023-04-16T12:50:23.094Z,100508.64
2023-04-16T12:52:35.828Z,100509.26
2023-04-16T12:54:48.374Z,100512.70
2023-04-16T12:57:00.869Z,100508.26
2023-04-16T12:59:13.403Z,100511.00
2023-04-16T13:01:25.948Z,100509.69
2023-04-16T13:03:38.664Z,100510.05
2023-04-16T13:05:51.769Z,100507.31
2023-04-16T13:08:04.451Z,100508.89
2023-04-16T13:10:17.341Z,100505.50
2023-04-16T13:12:29.950Z,100504.90
2023-04-16T13:14:43.998Z,100499.63
2023-04-16T13:16:57.580Z,100505.06
2023-04-16T13:19:10.493Z,100502.23
2023-04-16T13:21:23.843Z,100501.09
2023-04-16T13:23:36.483Z,100502.55
2023-04-16T13:25:50.585Z,100503.86
2023-04-16T13:28:03.314Z,100504.42
2023-04-16T13:30:16.268Z,100502.31
2023-04-16T13:32:28.940Z,100505.16
2023-04-16T13:34:41.583Z,100501.55
2023-04-16T13:36:54.087Z,100498.22
2023-04-16T13:39:11.311Z,100496.37
2023-04-16T13:41:24.297Z,100498.23
2023-04-16T13:43:37.095Z,100496.47
2023-04-16T13:45:49.694Z,100494.64
2023-04-16T13:48:02.504Z,100494.33
2023-04-16T13:50:16.045Z,100493.42
2023-04-16T13:52:28.577Z,100493.80
2023-04-16T13:54:41.495Z,100496.09
2023-04-16T13:56:54.142Z,100492.62
2023-04-16T13:59:06.794Z,100493.49
2023-04-16T14:01:19.667Z,100493.86
2023-04-16T14:03:35.835Z,100490.60
2023-04-16T14:05:48.447Z,100491.45
2023-04-16T14:08:00.972Z,100494.96
2023-04-16T14:10:13.608Z,100493.30
2023-04-16T14:12:27.314Z,100493.30
2023-04-16T14:14:39.922Z,100495.44
2023-04-16T14:16:54.709Z,100495.66
2023-04-16T14:19:07.226Z,100486.38
2023-04-16T14:21:19.739Z,100484.89
2023-04-16T14:23:32.718Z,100487.20
2023-04-16T14:25:45.320Z,100484.23
2023-04-16T14:28:00.062Z,100476.33
2023-04-16T14:30:13.133Z,100479.23
2023-04-16T14:32:26.499Z,100481.31
2023-04-16T14:34:39.066Z,100481.29
2023-04-16T14:36:52.023Z,100478.06
2023-04-16T14:39:04.686Z,100482.65
2023-04-16T14:41:17.281Z,100478.42
2023-04-16T14:43:29.825Z,100479.73
2023-04-16T14:45:42.568Z,100479.70
2023-04-16T14:47:55.244Z,100482.94
2023-04-16T14:50:08.349Z,100480.13
2023-04-16T14:52:20.920Z,100485.01
2023-04-16T14:54:33.959Z,100487.42
2023-04-16T14:56:47.390Z,100490.60
2023-04-16T14:58:59.966Z,100491.38
2023-04-16T15:01:14.755Z,100489.94
2023-04-16T15:03:27.748Z,100494.88
2023-04-16T15:05:40.831Z,100493.98
2023-04-16T15:07:53.862Z,100494.77
2023-04-16T15:10:09.095Z,100495.45
2023-04-16T15:12:21.674Z,100498.77
2023-04-16T15:14:34.219Z,100499.12
2023-04-16T15:16:48.960Z,100498.50
2023-04-16T15:19:04.810Z,100501.73
2023-04-16T15:21:17.840Z,100502.23
2023-04-16T15:23:31.950Z,100506.23
2023-04-16T15:25:44.586Z,100504.13
2023-04-16T15:27:57.153Z,100506.61
2023-04-16T15:30:10.249Z,100505.57
2023-04-16T15:32:23.087Z,100506.80
2023-04-16T15:34:35.672Z,100507.38
2023-04-16T15:36:48.208Z,100513.71
2023-04-16T15:39:00.820Z,100513.96
2023-04-16T15:41:13.602Z,100518.09
2023-04-16T15:43:30.124Z,100512.26
2023-04-16T15:45:42.770Z,100509.34
2023-04-16T15:47:56.424Z,100509.69
2023-04-16T15:50:09.599Z,100513.09
2023-04-16T15:52:22.237Z,100509.32
2023-04-16T15:54:34.816Z,100517.20
2023-04-16T15:56:47.560Z,100522.17
2023-04-16T15:59:00.143Z,100523.75
2023-04-16T16:01:12.731Z,100524.20
2023-04-16T16:03:25.444Z,100528.33
2023-04-16T16:05:38.234Z,100524.65
2023-04-16T16:07:51.698Z,100524.91
2023-04-16T16:10:05.925Z,100528.05
2023-04-16T16:12:18.753Z,100531.68
2023-04-16T16:14:33.044Z,100526.81
2023-04-16T16:16:45.884Z,100527.92
2023-04-16T16:18:58.440Z,100528.43
2023-04-16T16:21:11.249Z,100526.08
2023-04-16T16:23:23.948Z,100527.78
2023-04-16T16:25:37.089Z,100533.54
2023-04-16T16:27:49.601Z,100533.00
2023-04-16T16:30:04.465Z,100536.39
2023-04-16T16:32:17.076Z,100538.89
2023-04-16T16:34:29.657Z,100541.20
2023-04-16T16:36:42.186Z,100544.80
2023-04-16T16:38:55.193Z,100545.41
2023-04-16T16:41:08.577Z,100544.85
2023-04-16T16:43:21.419Z,100548.80
2023-04-16T16:45:33.942Z,100551.04
2023-04-16T16:47:46.788Z,100551.99
2023-04-16T16:50:00.754Z,100554.19
2023-04-16T16:52:15.396Z,100555.37
2023-04-16T16:54:27.923Z,100557.73
2023-04-16T16:56:40.475Z,100561.65
2023-04-16T16:58:52.965Z,100565.63
2023-04-16T17:01:05.826Z,100570.55
2023-04-16T17:03:18.711Z,100577.94
2023-04-16T17:05:31.446Z,100583.33
2023-04-16T17:07:44.098Z,100588.91
2023-04-16T17:09:56.728Z,100596.40
2023-04-16T17:12:09.351Z,100594.86
2023-04-16T17:14:21.875Z,100599.96
2023-04-16T17:16:34.493Z,100602.11
2023-04-16T17:18:47.222Z,100598.38
2023-04-16T17:20:59.931Z,100597.36
2023-04-16T17:23:12.597Z,100611.11
2023-04-16T17:25:25.198Z,100613.04
2023-04-16T17:27:37.758Z,100615.32
2023-04-16T17:29:50.677Z,100625.64
2023-04-16T17:32:03.888Z,100629.61
2023-04-16T17:34:19.440Z,100628.55
2023-04-16T17:36:32.166Z,100634.45
2023-04-16T17:38:45.073Z,100637.15
2023-04-16T17:40:57.991Z,100638.30
2023-04-16T17:43:10.605Z,100638.27
2023-04-16T17:45:23.139Z,100640.47
2023-04-16T17:47:36.387Z,100635.55
2023-04-16T17:49:48.938Z,100642.80
2023-04-16T17:52:01.903Z,100649.71
2023-04-16T17:54:14.578Z,100647.61
2023-04-16T17:56:27.205Z,100649.73
2023-04-16T17:58:39.871Z,100650.94
2023-04-16T18:00:52.383Z,100653.80
2023-04-16T18:03:05.243Z,100657.10
2023-04-16T18:05:19.062Z,100661.40
2023-04-16T18:07:32.423Z,100662.46
2023-04-16T18:09:45.213Z,100666.96
2023-04-16T18:11:57.791Z,100668.11
2023-04-16T18:14:13.228Z,100668.16
2023-04-16T18:16:26.227Z,100669.61
2023-04-16T18:18:38.810Z,100668.58
2023-04-16T18:20:52.337Z,100673.83
2023-04-16T18:23:04.936Z,100677.42
2023-04-16T18:25:19.013Z,100683.20
2023-04-16T18:27:33.338Z,100687.89
2023-04-16T18:29:45.902Z,100688.78
2023-04-16T18:31:59.125Z,100691.66
2023-04-16T18:34:12.538Z,100687.96
2023-04-16T18:36:26.582Z,100690.44
2023-04-16T18:38:49.379Z,100692.83
2023-04-16T18:41:17.696Z,100699.92
2023-04-16T18:43:31.052Z,100700.45
2023-04-16T18:45:43.600Z,100703.94
2023-04-16T18:47:58.814Z,100704.81
2023-04-16T18:50:11.426Z,100707.29
2023-04-16T18:52:24.038Z,100708.14
2023-04-16T18:54:36.676Z,100708.23
2023-04-16T18:56:49.242Z,100707.25
2023-04-16T18:59:01.895Z,100716.27
2023-04-16T19:01:14.503Z,100720.33
2023-04-16T19:03:29.587Z,100719.13
2023-04-16T19:05:42.248Z,100720.40
2023-04-16T19:07:55.480Z,100725.73
2023-04-16T19:10:08.594Z,100726.62
2023-04-16T19:12:21.511Z,100722.66
2023-04-16T19:14:34.089Z,100728.27
2023-04-16T19:16:47.386Z,100728.01
2023-04-16T19:19:00.777Z,100731.45
2023-04-16T19:21:13.369Z,100729.52
2023-04-16T19:23:26.661Z,100729.91
2023-04-16T19:25:40.804Z,100729.77
2023-04-16T19:27:55.575Z,100731.30
2023-04-16T19:30:08.817Z,100731.25
2023-04-16T19:32:21.523Z,100733.71
2023-04-16T19:34:34.129Z,100735.46
2023-04-16T19:36:46.901Z,100731.83
2023-04-16T19:38:59.490Z,100733.46
2023-04-16T19:41:12.099Z,100732.20
2023-04-16T19:43:24.652Z,100732.14
2023-04-16T19:45:46.038Z,100734.95
2023-04-16T19:47:58.957Z,100735.08
2023-04-16T19:50:11.719Z,100735.44
2023-04-16T19:52:24.315Z,100737.31
2023-04-16T19:54:37.542Z,100742.23
2023-04-16T19:56:53.080Z,100746.74
2023-04-16T19:59:05.673Z,100753.28
2023-04-16T20:01:18.322Z,100754.10
2023-04-16T20:03:30.984Z,100758.46
2023-04-16T20:05:43.555Z,100757.34
2023-04-16T20:07:56.614Z,100758.06
2023-04-16T20:10:09.736Z,100757.57
2023-04-16T20:12:22.836Z,100753.77
2023-04-16T20:14:35.496Z,100754.39
2023-04-16T20:16:48.243Z,100753.39
2023-04-16T20:19:08.604Z,100752.98
2023-04-16T20:21:21.673Z,100754.34
2023-04-16T20:23:34.244Z,100755.73
2023-04-16T20:25:46.849Z,100756.20
2023-04-16T20:27:59.408Z,100755.04
2023-04-16T20:30:12.763Z,100754.54
2023-04-16T20:32:27.206Z,100750.70
2023-04-16T20:34:40.551Z,100753.95
2023-04-16T20:36:54.756Z,100747.96
2023-04-16T20:39:08.148Z,100746.22
2023-04-16T20:41:21.282Z,100748.27
2023-04-16T20:43:40.967Z,100748.86
2023-04-16T20:45:53.828Z,100746.01
2023-04-16T20:48:09.581Z,100745.55
2023-04-16T20:50:22.220Z,100740.73
2023-04-16T20:52:34.742Z,100743.89
2023-04-16T20:54:47.862Z,100738.67
2023-04-16T20:57:01.908Z,100741.30
2023-04-16T20:59:16.032Z,100738.65
2023-04-16T21:01:28.552Z,100738.47
2023-04-16T21:03:41.398Z,100742.02
2023-04-16T21:05:55.376Z,100741.08
2023-04-16T21:08:07.967Z,100745.95
2023-04-16T21:10:20.748Z,100747.93
2023-04-16T21:12:33.278Z,100749.68
2023-04-16T21:14:45.870Z,100752.13
2023-04-16T21:16:58.432Z,100753.58
2023-04-16T21:19:11.259Z,100759.59
2023-04-16T21:21:24.959Z,100759.02
2023-04-16T21:23:37.501Z,100760.23
2023-04-16T21:25:50.081Z,100755.06
2023-04-16T21:28:02.654Z,100754.38
2023-04-16T21:30:15.782Z,100751.61
2023-04-16T21:32:28.386Z,100753.48
2023-04-16T21:34:41.014Z,100749.70
2023-04-16T21:36:53.555Z,100752.31
2023-04-16T21:39:06.108Z,100748.65
2023-04-16T21:41:18.641Z,100750.08
2023-04-16T21:43:32.197Z,100754.33
2023-04-16T21:45:44.951Z,100756.17
2023-04-16T21:47:57.588Z,100757.44
2023-04-16T21:50:10.694Z,100756.08
2023-04-16T21:52:23.242Z,100751.06
2023-04-16T21:54:35.944Z,100752.14
2023-04-16T21:56:48.480Z,100753.12
2023-04-16T21:59:01.082Z,100754.59
2023-04-16T22:01:13.703Z,100754.33
2023-04-16T22:03:27.594Z,100752.47
2023-04-16T22:05:40.354Z,100757.22
2023-04-16T22:07:53.178Z,100756.13
2023-04-16T22:10:06.778Z,100753.52
2023-04-16T22:12:19.355Z,100750.34
2023-04-16T22:14:31.999Z,100748.52
2023-04-16T22:16:44.938Z,100745.43
2023-04-16T22:18:57.467Z,100749.70
2023-04-16T22:21:10.325Z,100751.69
2023-04-16T22:23:24.048Z,100750.12
2023-04-16T22:25:36.709Z,100745.51
2023-04-16T22:27:49.260Z,100746.92
2023-04-16T22:30:02.760Z,100745.58
2023-04-16T22:32:15.512Z,100744.07
2023-04-16T22:34:28.134Z,100745.00
2023-04-16T22:36:41.273Z,100742.94
2023-04-16T22:38:53.834Z,100742.77
2023-04-16T22:41:06.376Z,100742.71
2023-04-16T22:43:18.929Z,100737.23
2023-04-16T22:45:31.534Z,100737.56
2023-04-16T22:47:44.155Z,100737.13
2023-04-16T22:49:56.674Z,100734.97
2023-04-16T22:52:09.212Z,100738.00
2023-04-16T22:54:21.778Z,100740.41
2023-04-16T22:56:34.383Z,100740.14
2023-04-16T22:58:49.169Z,100743.67
2023-04-16T23:01:01.799Z,100741.92
2023-04-16T23:03:15.537Z,100745.05
2023-04-16T23:05:28.138Z,100744.78
2023-04-16T23:07:40.710Z,100745.97
2023-04-16T23:09:53.270Z,100745.69
2023-04-16T23:12:06.146Z,100744.77
2023-04-16T23:14:18.682Z,100747.90
2023-04-16T23:16:31.347Z,100747.02
2023-04-16T23:18:43.924Z,100747.48
2023-04-16T23:20:56.552Z,100744.14
2023-04-16T23:23:09.096Z,100747.63
2023-04-16T23:25:23.508Z,100744.23
2023-04-16T23:27:36.461Z,100742.41
2023-04-16T23:29:49.246Z,100741.61
2023-04-16T23:32:01.903Z,100741.45
2023-04-16T23:34:14.628Z,100743.35
2023-04-16T23:36:27.542Z,100743.16
2023-04-16T23:38:40.055Z,100745.80
2023-04-16T23:40:52.623Z,100745.98
2023-04-16T23:43:05.179Z,100744.93
2023-04-16T23:45:17.927Z,100743.70
2023-04-16T23:47:30.649Z,100747.48
2023-04-16T23:49:43.255Z,100747.31
2023-04-16T23:51:55.853Z,100744.02
2023-04-16T23:54:08.374Z,100744.20
2023-04-16T23:56:21.165Z,100741.48
2023-04-16T23:58:33.692Z,100742.21
